Time;durP1;ratioP1;P1;durP2;ratioP2;P2;SDS_P1;SDS_P2;PMS_P1;PMS_P2;Temp;Humidity;BMP_temperature;BMP_pressure;BME280_temperature;BME280_humidity;BME280_pressure;Samples;Min_cycle;Max_cycle;Signal;HPM_P1;HPM_P2
2023/08/24 00:01:16;;;;;;;13.98;3.05;;;;;;;18.51;85.79;101519.38;4965715;28;20042;-65
2023/08/24 00:03:44;;;;;;;10.63;3.30;;;;;;;18.48;86.13;101524.00;4981658;28;20069;-64
2023/08/24 00:06:10;;;;;;;12.38;3.65;;;;;;;18.46;86.35;101519.97;4984583;28;20049;-65
2023/08/24 00:08:35;;;;;;;6.93;2.92;;;;;;;18.46;86.41;101515.50;4982152;28;20033;-64
2023/08/24 00:11:01;;;;;;;8.10;3.13;;;;;;;18.44;86.79;101509.63;4964792;28;20573;-65
2023/08/24 00:13:27;;;;;;;4.63;2.88;;;;;;;18.40;87.42;101518.91;4949273;28;20038;-64
2023/08/24 00:15:54;;;;;;;8.48;3.67;;;;;;;18.32;88.62;101519.03;4983171;28;20049;-65
2023/08/24 00:18:21;;;;;;;5.85;3.17;;;;;;;18.25;89.47;101516.38;4982743;28;20073;-65
2023/08/24 00:20:47;;;;;;;5.30;3.00;;;;;;;18.24;89.60;101511.28;4990339;23;20030;-65
2023/08/24 00:23:13;;;;;;;12.30;3.50;;;;;;;18.21;90.12;101509.84;4980378;28;20041;-65
2023/08/24 00:25:40;;;;;;;11.02;3.63;;;;;;;18.19;90.48;101503.97;4983093;28;20026;-65
2023/08/24 00:28:06;;;;;;;8.80;3.65;;;;;;;18.18;90.85;101506.81;4978873;28;20057;-64
2023/08/24 00:30:32;;;;;;;4.90;3.45;;;;;;;18.14;91.40;101498.50;4996987;28;20149;-65
2023/08/24 00:32:57;;;;;;;9.57;4.00;;;;;;;18.13;91.21;101496.88;4997159;28;20060;-65
2023/08/24 00:35:23;;;;;;;12.45;3.58;;;;;;;18.13;91.46;101493.44;5002187;28;20026;-65
2023/08/24 00:37:50;;;;;;;9.90;3.70;;;;;;;18.12;91.53;101483.94;5001369;28;20038;-65
2023/08/24 00:40:16;;;;;;;5.65;3.10;;;;;;;18.03;92.10;101483.28;5005642;28;20395;-65
2023/08/24 00:42:43;;;;;;;7.82;3.28;;;;;;;17.94;92.66;101481.78;4983585;28;20045;-65
2023/08/24 00:45:11;;;;;;;10.00;3.55;;;;;;;17.87;92.83;101485.13;4983511;28;20033;-65
2023/08/24 00:47:46;;;;;;;6.57;3.33;;;;;;;17.84;93.19;101490.75;4986926;28;20132;-65
2023/08/24 00:50:13;;;;;;;9.65;4.10;;;;;;;17.84;93.36;101469.78;4969928;28;20098;-65
2023/08/24 00:52:41;;;;;;;11.70;4.65;;;;;;;17.86;93.09;101478.28;4986140;28;20694;-65
2023/08/24 00:55:07;;;;;;;9.55;4.40;;;;;;;17.87;93.51;101479.06;4987790;28;20025;-65
2023/08/24 00:57:34;;;;;;;8.98;4.32;;;;;;;17.85;93.83;101473.19;4981369;28;20369;-65
2023/08/24 01:00:05;;;;;;;10.80;4.65;;;;;;;17.81;94.21;101470.09;4987285;28;20121;-65
2023/08/24 01:02:31;;;;;;;8.73;3.67;;;;;;;17.75;94.47;101473.50;4986800;28;20549;-65
2023/08/24 01:04:58;;;;;;;7.38;3.15;;;;;;;17.68;94.57;101478.66;5000978;28;20053;-65
2023/08/24 01:07:25;;;;;;;7.85;3.78;;;;;;;17.67;94.64;101486.72;4982622;28;20038;-65
2023/08/24 01:09:51;;;;;;;14.35;4.00;;;;;;;17.70;94.64;101475.84;4982571;28;20559;-65
2023/08/24 01:12:32;;;;;;;8.55;4.05;;;;;;;17.72;94.56;101476.47;4983066;28;20046;-65
2023/08/24 01:15:15;;;;;;;6.50;3.85;;;;;;;17.70;95.12;101494.22;4999141;28;20136;-64
2023/08/24 01:17:43;;;;;;;13.30;4.97;;;;;;;17.68;95.84;101499.63;4983333;28;20109;-65
2023/08/24 01:20:10;;;;;;;7.70;4.50;;;;;;;17.67;96.36;101482.28;4987857;28;20038;-64
2023/08/24 01:23:06;;;;;;;9.20;5.57;;;;;;;17.65;96.21;101479.03;5001761;28;20068;-65
2023/08/24 01:25:34;;;;;;;8.70;5.20;;;;;;;17.60;96.79;101472.75;4991626;28;20044;-66
2023/08/24 01:28:01;;;;;;;10.20;4.47;;;;;;;17.56;97.22;101479.34;5020282;28;20048;-64
2023/08/24 01:30:27;;;;;;;11.25;4.70;;;;;;;17.54;97.26;101468.22;4987003;28;20033;-65
2023/08/24 01:32:53;;;;;;;13.38;4.18;;;;;;;17.49;97.35;101474.03;5019885;28;20507;-65
2023/08/24 01:35:18;;;;;;;8.00;4.20;;;;;;;17.41;97.75;101471.53;5021427;28;20040;-65
2023/08/24 01:37:44;;;;;;;9.88;4.18;;;;;;;17.35;97.96;101470.47;5007630;28;20399;-65
2023/08/24 01:40:12;;;;;;;11.20;4.30;;;;;;;17.28;98.24;101461.69;5006395;28;20029;-64
2023/08/24 01:42:49;;;;;;;10.68;3.92;;;;;;;17.26;98.62;101458.44;5001865;28;20042;-65
2023/08/24 01:45:18;;;;;;;8.50;4.53;;;;;;;17.25;98.29;101448.97;5004140;28;20092;-65
2023/08/24 01:47:47;;;;;;;9.85;4.15;;;;;;;17.19;98.49;101444.47;5000413;28;20052;-64
2023/08/24 01:50:12;;;;;;;11.48;4.43;;;;;;;17.13;98.90;101441.56;5002121;28;20061;-65
2023/08/24 01:52:40;;;;;;;10.82;4.30;;;;;;;17.06;99.39;101445.09;5006103;28;20041;-64
2023/08/24 01:55:06;;;;;;;10.98;4.05;;;;;;;17.01;99.64;101445.66;5004444;28;20415;-65
2023/08/24 01:57:31;;;;;;;9.80;4.47;;;;;;;17.03;99.62;101441.06;5006198;28;20049;-65
2023/08/24 01:59:57;;;;;;;14.02;4.50;;;;;;;17.07;99.64;101441.50;4985565;28;20392;-64
2023/08/24 02:02:24;;;;;;;10.23;4.05;;;;;;;17.06;99.50;101432.00;5004421;28;20030;-65
2023/08/24 02:04:49;;;;;;;10.05;4.50;;;;;;;17.01;99.59;101429.13;5004843;28;20124;-64
2023/08/24 02:07:15;;;;;;;11.32;4.30;;;;;;;16.96;100.00;101423.63;5001043;28;20459;-65
2023/08/24 02:09:40;;;;;;;8.80;4.10;;;;;;;16.95;100.00;101430.66;5024612;28;20033;-65
2023/08/24 02:12:06;;;;;;;10.80;4.72;;;;;;;16.93;100.00;101428.25;4989758;28;21005;-65
2023/08/24 02:14:32;;;;;;;8.50;4.65;;;;;;;16.96;100.00;101429.69;5006047;28;20033;-65
2023/08/24 02:16:57;;;;;;;9.82;5.03;;;;;;;17.01;100.00;101426.50;4990003;28;20044;-65
2023/08/24 02:19:23;;;;;;;10.45;4.53;;;;;;;17.04;100.00;101431.38;5004252;28;20036;-65
2023/08/24 02:21:48;;;;;;;11.52;4.25;;;;;;;17.08;100.00;101438.72;5018153;28;20042;-66
2023/08/24 02:24:13;;;;;;;7.57;4.82;;;;;;;17.10;99.80;101439.34;4989470;28;20033;-65
2023/08/24 02:26:39;;;;;;;13.40;5.60;;;;;;;17.12;100.00;101439.13;4987958;28;20045;-64
2023/08/24 02:29:04;;;;;;;10.93;5.47;;;;;;;17.10;100.00;101438.50;5007000;28;20479;-64
2023/08/24 02:31:30;;;;;;;12.57;5.20;;;;;;;17.07;100.00;101444.13;5002557;28;20038;-65
2023/08/24 02:33:56;;;;;;;14.10;5.40;;;;;;;17.07;100.00;101451.97;5004997;28;20558;-64
2023/08/24 02:36:21;;;;;;;10.38;5.88;;;;;;;17.08;100.00;101450.97;5022430;28;20045;-65
2023/08/24 02:38:47;;;;;;;10.50;5.57;;;;;;;17.10;100.00;101439.34;5004198;28;20047;-65
2023/08/24 02:41:14;;;;;;;18.70;6.50;;;;;;;17.09;100.00;101437.69;5018710;28;20049;-65
2023/08/24 02:43:40;;;;;;;13.77;5.50;;;;;;;17.06;100.00;101440.66;5003665;28;20578;-64
2023/08/24 02:46:08;;;;;;;9.27;5.15;;;;;;;17.01;100.00;101434.34;5020130;28;20033;-65
2023/08/24 02:48:34;;;;;;;10.27;5.78;;;;;;;16.97;100.00;101412.16;5001903;28;20043;-65
2023/08/24 02:51:03;;;;;;;9.80;5.70;;;;;;;16.92;100.00;101410.09;5003476;28;20040;-65
2023/08/24 02:53:29;;;;;;;9.23;4.50;;;;;;;16.89;100.00;101413.06;5002663;28;20029;-65
2023/08/24 02:55:58;;;;;;;7.68;4.85;;;;;;;16.86;100.00;101414.25;5003903;28;20044;-65
2023/08/24 02:58:23;;;;;;;8.35;5.05;;;;;;;16.88;100.00;101414.88;5003905;28;20025;-65
2023/08/24 03:00:49;;;;;;;12.85;5.43;;;;;;;16.91;100.00;101417.16;5016422;28;20038;-65
2023/08/24 03:03:15;;;;;;;10.40;5.47;;;;;;;16.93;100.00;101424.78;5023651;28;20026;-65
2023/08/24 03:05:41;;;;;;;11.93;4.85;;;;;;;16.97;100.00;101425.25;5022318;28;20403;-65
2023/08/24 03:08:07;;;;;;;8.52;5.40;;;;;;;17.00;100.00;101424.88;5016306;28;20037;-65
2023/08/24 03:10:36;;;;;;;12.65;5.03;;;;;;;17.04;100.00;101429.56;5001568;28;20033;-65
2023/08/24 03:13:03;;;;;;;7.00;4.70;;;;;;;17.07;100.00;101425.78;5021557;28;20135;-65
2023/08/24 03:15:29;;;;;;;10.85;5.57;;;;;;;17.09;100.00;101426.41;4999801;28;20534;-65
2023/08/24 03:17:55;;;;;;;9.40;5.50;;;;;;;17.10;100.00;101438.50;5000343;28;20403;-65
2023/08/24 03:20:22;;;;;;;9.63;5.80;;;;;;;17.12;100.00;101436.50;4999605;28;20033;-65
2023/08/24 03:22:47;;;;;;;13.65;6.10;;;;;;;17.11;100.00;101454.03;5000709;28;20045;-65
2023/08/24 03:25:13;;;;;;;10.80;6.63;;;;;;;17.10;100.00;101455.06;5005280;28;20080;-65
2023/08/24 03:27:39;;;;;;;17.02;7.38;;;;;;;17.10;100.00;101460.28;4985976;28;20039;-65
2023/08/24 03:30:05;;;;;;;13.00;6.45;;;;;;;17.09;100.00;101466.50;5002796;28;20041;-65
2023/08/24 03:32:31;;;;;;;12.82;6.72;;;;;;;17.09;100.00;101463.09;4998843;28;20042;-65
2023/08/24 03:35:00;;;;;;;10.80;6.43;;;;;;;17.10;100.00;101462.91;5018903;28;20049;-65
2023/08/24 03:37:25;;;;;;;11.02;6.40;;;;;;;17.11;100.00;101467.13;5005006;28;20033;-65
2023/08/24 03:39:51;;;;;;;10.40;6.30;;;;;;;17.15;100.00;101466.78;5021472;28;20041;-65
2023/08/24 03:42:17;;;;;;;13.00;6.78;;;;;;;17.16;100.00;101464.00;4992428;28;20384;-65
2023/08/24 03:44:43;;;;;;;15.43;8.18;;;;;;;17.24;100.00;101444.72;5009183;28;20033;-65
2023/08/24 03:47:08;;;;;;;14.10;7.38;;;;;;;17.14;100.00;101434.53;5019737;28;20030;-65
2023/08/24 03:49:34;;;;;;;13.10;7.60;;;;;;;17.06;100.00;101422.34;5007924;28;20036;-65
2023/08/24 03:52:00;;;;;;;11.77;6.93;;;;;;;17.02;100.00;101417.66;4990126;28;20041;-65
2023/08/24 03:54:27;;;;;;;10.57;6.30;;;;;;;17.03;100.00;101411.44;4992326;28;20041;-65
2023/08/24 03:56:52;;;;;;;13.15;6.88;;;;;;;17.04;100.00;101402.56;5006626;28;20391;-65
2023/08/24 03:59:20;;;;;;;10.40;6.65;;;;;;;17.08;100.00;101404.66;5007691;28;20092;-65
2023/08/24 04:01:45;;;;;;;11.77;6.68;;;;;;;17.11;100.00;101398.22;5021029;28;20050;-65
2023/08/24 04:04:11;;;;;;;17.73;8.57;;;;;;;17.20;100.00;101393.69;5001644;28;20030;-65
2023/08/24 04:06:36;;;;;;;16.20;8.90;;;;;;;17.28;100.00;101396.19;5006480;28;20186;-65
2023/08/24 04:09:02;;;;;;;13.98;7.57;;;;;;;17.18;100.00;101388.63;4990952;28;20048;-64
2023/08/24 04:11:27;;;;;;;16.25;7.65;;;;;;;17.11;100.00;101385.13;5022302;28;20045;-64
2023/08/24 04:13:53;;;;;;;15.43;8.02;;;;;;;17.06;100.00;101375.19;5007114;28;20045;-64
2023/08/24 04:16:18;;;;;;;13.45;7.07;;;;;;;17.07;100.00;101404.81;5000029;28;20098;-65
2023/08/24 04:18:45;;;;;;;15.27;7.28;;;;;;;17.07;100.00;101389.09;5006680;28;20562;-65
2023/08/24 04:21:10;;;;;;;15.85;8.82;;;;;;;17.15;100.00;101370.66;5001867;28;20057;-65
2023/08/24 04:23:36;;;;;;;19.42;10.13;;;;;;;17.23;100.00;101370.50;4987699;28;20491;-64
2023/08/24 04:26:02;;;;;;;16.45;10.23;;;;;;;17.13;100.00;101360.34;5022748;28;20045;-64
2023/08/24 04:28:28;;;;;;;17.42;9.38;;;;;;;17.12;100.00;101347.41;5005848;28;20519;-65
2023/08/24 04:30:54;;;;;;;21.80;10.65;;;;;;;17.17;100.00;101323.31;5005442;28;20042;-65
2023/08/24 04:33:20;;;;;;;19.63;9.48;;;;;;;17.00;100.00;101310.44;5007361;28;20498;-65
2023/08/24 04:35:50;;;;;;;16.63;9.32;;;;;;;16.92;100.00;101308.75;5022091;28;20036;-65
2023/08/24 04:38:16;;;;;;;16.67;8.48;;;;;;;16.85;100.00;101317.53;5022094;28;20088;-65
2023/08/24 04:40:53;;;;;;;12.10;7.30;;;;;;;16.85;100.00;101320.16;5008979;28;20483;-65
2023/08/24 04:43:20;;;;;;;16.08;8.35;;;;;;;16.86;100.00;101317.34;5006557;28;20060;-65
2023/08/24 04:45:52;;;;;;;16.73;8.20;;;;;;;16.94;100.00;101311.19;4990512;28;20046;-65
2023/08/24 04:48:18;;;;;;;15.00;7.97;;;;;;;16.92;100.00;101300.88;5004921;28;20070;-64
2023/08/24 04:50:45;;;;;;;14.02;7.18;;;;;;;16.99;100.00;101285.25;4987258;28;20490;-65
2023/08/24 04:53:14;;;;;;;13.82;7.70;;;;;;;17.08;100.00;101273.66;5007828;28;20033;-67
2023/08/24 04:55:40;;;;;;;14.80;7.13;;;;;;;16.99;100.00;101281.78;5004702;28;20018;-67
2023/08/24 04:58:07;;;;;;;18.40;7.43;;;;;;;16.96;100.00;101288.22;5006192;28;20522;-64
2023/08/24 05:00:33;;;;;;;9.95;6.28;;;;;;;16.96;100.00;101303.16;5024107;28;20145;-65
2023/08/24 05:02:59;;;;;;;10.15;5.88;;;;;;;16.99;100.00;101308.00;5020634;28;20144;-65
2023/08/24 05:05:24;;;;;;;13.93;7.07;;;;;;;17.04;100.00;101309.06;5018923;28;20118;-65
2023/08/24 05:07:50;;;;;;;9.63;6.00;;;;;;;17.07;100.00;101316.56;5006982;28;20045;-65
2023/08/24 05:10:15;;;;;;;15.00;7.90;;;;;;;17.11;100.00;101315.19;5021089;28;20026;-64
2023/08/24 05:12:41;;;;;;;17.05;8.02;;;;;;;17.17;100.00;101310.19;5001844;28;20037;-64
2023/08/24 05:15:07;;;;;;;14.43;9.07;;;;;;;17.21;100.00;101314.88;4999751;28;20112;-64
2023/08/24 05:17:32;;;;;;;20.15;8.32;;;;;;;17.34;100.00;101310.75;5022756;28;20602;-65
2023/08/24 05:19:59;;;;;;;17.90;7.35;;;;;;;17.24;100.00;101311.06;5022598;28;20136;-65
2023/08/24 05:22:24;;;;;;;13.48;8.82;;;;;;;17.22;100.00;101316.50;5024077;28;20120;-65
2023/08/24 05:24:50;;;;;;;13.77;8.05;;;;;;;17.22;100.00;101316.50;5005013;28;20057;-64
2023/08/24 05:27:16;;;;;;;11.70;7.72;;;;;;;17.21;100.00;101314.88;5020152;28;20034;-65
2023/08/24 05:29:42;;;;;;;13.65;7.00;;;;;;;17.21;100.00;101316.69;5005866;28;20503;-65
2023/08/24 05:32:07;;;;;;;18.85;7.93;;;;;;;17.21;100.00;101308.81;5021004;28;20032;-65
2023/08/24 05:34:33;;;;;;;15.23;7.85;;;;;;;17.23;100.00;101312.06;5023898;28;20045;-65
2023/08/24 05:36:58;;;;;;;14.48;8.05;;;;;;;17.23;100.00;101306.81;5023513;28;21812;-65
2023/08/24 05:39:24;;;;;;;16.65;9.05;;;;;;;17.36;100.00;101298.28;5005576;28;20037;-65
2023/08/24 05:41:53;;;;;;;19.90;7.50;;;;;;;17.28;100.00;101289.53;4997750;28;20045;-64
2023/08/24 05:44:19;;;;;;;15.93;7.50;;;;;;;17.42;100.00;101284.41;5006205;28;20036;-65
2023/08/24 05:46:46;;;;;;;18.42;8.68;;;;;;;17.45;100.00;101286.66;5016019;28;20119;-64
2023/08/24 05:49:11;;;;;;;17.38;7.93;;;;;;;17.46;100.00;101289.09;5025052;28;20060;-65
2023/08/24 05:51:37;;;;;;;15.43;7.50;;;;;;;17.52;100.00;101288.31;5022229;28;20049;-65
2023/08/24 05:54:02;;;;;;;14.85;8.00;;;;;;;17.47;100.00;101282.84;5007763;28;20041;-65
2023/08/24 05:56:28;;;;;;;13.75;7.65;;;;;;;17.41;100.00;101282.81;5004896;28;20041;-65
2023/08/24 05:58:54;;;;;;;19.00;7.63;;;;;;;17.56;100.00;101274.84;5020886;28;20040;-65
2023/08/24 06:01:20;;;;;;;18.27;8.07;;;;;;;17.60;100.00;101276.09;5002709;28;20029;-65
2023/08/24 06:03:46;;;;;;;18.67;8.55;;;;;;;17.60;100.00;101270.84;5007583;28;20036;-65
2023/08/24 06:06:12;;;;;;;19.50;8.55;;;;;;;17.68;100.00;101263.63;5021722;28;20053;-65
2023/08/24 06:08:37;;;;;;;17.38;8.13;;;;;;;17.68;100.00;101266.25;5005408;28;20566;-65
2023/08/24 06:11:03;;;;;;;17.30;9.05;;;;;;;17.81;100.00;101248.97;5000652;28;20093;-65
2023/08/24 06:13:28;;;;;;;21.58;9.85;;;;;;;17.85;100.00;101242.38;5022939;28;20779;-65
2023/08/24 06:15:54;;;;;;;17.60;9.02;;;;;;;17.87;100.00;101245.63;4984804;28;20040;-65
2023/08/24 06:18:20;;;;;;;14.82;7.30;;;;;;;17.88;100.00;101245.44;5017580;28;20025;-67
2023/08/24 06:20:45;;;;;;;15.65;8.27;;;;;;;17.96;100.00;101239.22;4985330;28;20033;-65
2023/08/24 06:23:13;;;;;;;17.17;9.07;;;;;;;18.01;100.00;101247.31;5018149;28;20049;-65
2023/08/24 06:25:38;;;;;;;13.45;8.15;;;;;;;18.05;100.00;101235.41;5001968;28;20080;-65
2023/08/24 06:28:04;;;;;;;15.70;8.23;;;;;;;18.20;100.00;101227.41;5001402;28;20037;-66
2023/08/24 06:30:36;;;;;;;15.68;9.35;;;;;;;18.28;100.00;101224.59;5015343;28;20116;-67
2023/08/24 06:33:03;;;;;;;15.93;9.70;;;;;;;18.28;100.00;101216.72;5021907;28;20037;-65
2023/08/24 06:35:29;;;;;;;22.35;10.80;;;;;;;18.47;100.00;101212.53;5022969;28;20580;-65
2023/08/24 06:37:54;;;;;;;17.48;9.77;;;;;;;18.54;100.00;101214.41;5003478;28;20030;-65
2023/08/24 06:40:20;;;;;;;19.13;9.00;;;;;;;18.60;100.00;101213.59;5017731;28;20514;-65
2023/08/24 06:42:45;;;;;;;15.63;9.60;;;;;;;18.74;100.00;101219.69;4998347;28;20664;-65
2023/08/24 06:45:11;;;;;;;17.77;9.65;;;;;;;18.79;100.00;101214.63;5020078;28;20041;-65
2023/08/24 06:47:37;;;;;;;15.23;8.63;;;;;;;18.93;100.00;101204.97;5000828;28;20158;-65
2023/08/24 06:50:02;;;;;;;16.10;9.48;;;;;;;19.01;100.00;101194.28;5002362;28;20072;-65
2023/08/24 06:52:28;;;;;;;18.15;9.00;;;;;;;19.16;100.00;101204.59;5021584;28;20048;-65
2023/08/24 06:54:56;;;;;;;18.13;9.18;;;;;;;19.24;100.00;101201.75;5020036;28;20503;-65
2023/08/24 06:57:21;;;;;;;15.18;9.13;;;;;;;19.39;100.00;101202.34;5020003;28;20049;-65
2023/08/24 06:59:47;;;;;;;13.27;7.97;;;;;;;19.55;100.00;101195.00;5000976;28;20424;-65
2023/08/24 07:02:12;;;;;;;16.25;8.15;;;;;;;19.84;100.00;101205.09;5001612;28;20455;-65
2023/08/24 07:04:40;;;;;;;19.45;8.35;;;;;;;20.25;100.00;101200.47;5020656;28;20033;-65
2023/08/24 07:07:06;;;;;;;19.90;8.07;;;;;;;20.82;96.70;101205.03;4999893;28;20077;-65
2023/08/24 07:09:31;;;;;;;13.13;7.05;;;;;;;21.50;93.76;101210.31;5004687;28;20071;-65
2023/08/24 07:11:57;;;;;;;15.55;6.57;;;;;;;22.19;89.20;101209.31;5018735;28;20037;-65
2023/08/24 07:14:22;;;;;;;12.85;7.60;;;;;;;22.84;87.61;101209.44;5004353;28;20531;-65
2023/08/24 07:16:48;;;;;;;13.38;6.80;;;;;;;23.29;83.10;101206.25;4990977;28;21301;-66
2023/08/24 07:19:13;;;;;;;17.50;6.35;;;;;;;23.70;80.94;101195.75;5020202;28;20517;-66
2023/08/24 07:21:39;;;;;;;10.55;6.00;;;;;;;24.14;78.67;101182.84;5017057;28;20034;-66
2023/08/24 07:24:04;;;;;;;14.15;6.75;;;;;;;24.11;74.93;101188.63;5006047;28;20480;-66
2023/08/24 07:26:30;;;;;;;10.88;6.22;;;;;;;24.15;74.35;101181.00;5021923;28;20117;-65
2023/08/24 07:28:56;;;;;;;15.75;6.65;;;;;;;24.24;74.99;101180.41;5024846;28;20041;-65
2023/08/24 07:31:22;;;;;;;14.88;6.47;;;;;;;24.44;72.82;101174.63;5020267;28;20049;-65
2023/08/24 07:33:48;;;;;;;17.27;6.18;;;;;;;24.67;72.69;101175.56;5025222;28;20041;-66
2023/08/24 07:36:13;;;;;;;11.05;5.75;;;;;;;24.95;72.14;101172.00;5022496;28;20389;-65
2023/08/24 07:38:39;;;;;;;14.38;6.25;;;;;;;24.60;71.50;101170.44;4990409;28;20025;-65
2023/08/24 07:41:06;;;;;;;14.65;6.05;;;;;;;24.47;71.48;101181.31;5022886;28;20045;-65
2023/08/24 07:43:32;;;;;;;10.18;5.50;;;;;;;24.74;70.72;101170.91;5004205;28;20484;-66
2023/08/24 07:45:58;;;;;;;13.75;6.13;;;;;;;24.56;70.19;101185.19;5006208;28;20045;-65
2023/08/24 07:48:23;;;;;;;9.05;4.72;;;;;;;25.19;70.15;101182.44;5006694;28;20495;-66
2023/08/24 07:50:49;;;;;;;12.45;6.40;;;;;;;25.21;68.35;101191.75;5021719;28;20041;-66
2023/08/24 07:53:14;;;;;;;12.63;4.95;;;;;;;25.16;68.22;101193.53;5021210;28;20034;-65
2023/08/24 07:55:40;;;;;;;15.82;5.63;;;;;;;25.47;67.09;101196.59;5024661;28;20045;-66
2023/08/24 07:58:06;;;;;;;12.43;5.43;;;;;;;25.80;66.32;101209.75;5023639;28;20029;-66
2023/08/24 08:00:32;;;;;;;9.40;4.47;;;;;;;26.11;65.19;101193.41;5020534;28;20038;-66
2023/08/24 08:02:58;;;;;;;9.02;4.70;;;;;;;26.44;63.41;101195.03;5021531;28;20620;-66
2023/08/24 08:05:24;;;;;;;9.40;4.95;;;;;;;26.72;63.91;101185.19;5008067;28;20064;-66
2023/08/24 08:07:49;;;;;;;11.30;4.85;;;;;;;27.07;62.95;101173.16;5008626;28;20483;-66
2023/08/24 08:10:20;;;;;;;9.27;3.97;;;;;;;27.22;62.59;101164.47;5021757;28;20026;-66
2023/08/24 08:12:45;;;;;;;11.07;4.32;;;;;;;27.24;60.79;101170.31;5022900;28;20750;-66
2023/08/24 08:15:11;;;;;;;7.78;4.25;;;;;;;26.97;60.20;101163.25;5021501;28;20411;-65
2023/08/24 08:17:37;;;;;;;10.43;4.63;;;;;;;26.73;62.97;101161.00;5003540;28;20033;-65
2023/08/24 08:20:03;;;;;;;7.85;4.35;;;;;;;27.00;62.45;101162.75;5021826;28;20974;-66
2023/08/24 08:22:28;;;;;;;10.32;4.32;;;;;;;27.05;60.94;101157.47;5022779;28;20051;-66
2023/08/24 08:24:56;;;;;;;10.05;3.88;;;;;;;26.67;61.00;101147.91;5020566;28;20033;-66
2023/08/24 08:27:22;;;;;;;7.32;3.75;;;;;;;26.56;63.04;101141.69;5004946;28;20057;-66
2023/08/24 08:29:48;;;;;;;6.70;3.63;;;;;;;26.61;61.51;101139.88;5022064;28;20519;-66
2023/08/24 08:32:14;;;;;;;7.97;4.10;;;;;;;26.61;64.33;101145.22;4985421;28;20046;-65
2023/08/24 08:34:39;;;;;;;9.45;3.95;;;;;;;26.57;63.42;101146.75;5026602;28;20329;-66
2023/08/24 08:37:05;;;;;;;10.40;4.38;;;;;;;26.37;63.03;101150.06;5021562;28;20491;-65
2023/08/24 08:39:32;;;;;;;8.60;4.35;;;;;;;26.37;63.91;101150.06;5008876;28;20092;-66
2023/08/24 08:41:58;;;;;;;8.48;4.05;;;;;;;26.33;63.02;101151.59;5022221;28;20057;-66
2023/08/24 08:44:29;;;;;;;11.05;4.15;;;;;;;26.49;62.97;101149.09;5023079;28;20043;-65
2023/08/24 08:46:57;;;;;;;7.78;3.95;;;;;;;26.41;63.08;101145.06;4999322;28;20513;-65
2023/08/24 08:49:23;;;;;;;14.93;5.38;;;;;;;26.50;63.68;101153.34;5004241;28;20427;-66
2023/08/24 08:51:51;;;;;;;13.82;4.95;;;;;;;26.52;61.83;101149.41;5022739;28;20408;-65
2023/08/24 08:54:16;;;;;;;9.38;4.60;;;;;;;26.67;63.88;101138.06;5024348;28;20590;-65
2023/08/24 08:56:42;;;;;;;9.10;4.18;;;;;;;26.81;62.60;101125.16;5024138;28;20038;-66
2023/08/24 08:59:08;;;;;;;12.75;4.65;;;;;;;26.82;60.98;101112.63;5006803;28;20079;-65
2023/08/24 09:01:34;;;;;;;7.90;4.20;;;;;;;26.79;63.53;101106.78;5018287;28;20041;-66
2023/08/24 09:04:00;;;;;;;19.23;4.40;;;;;;;26.78;64.19;101096.41;4990223;28;20510;-66
2023/08/24 09:06:26;;;;;;;8.30;4.50;;;;;;;26.82;62.86;101083.38;5020921;28;20037;-66
2023/08/24 09:08:52;;;;;;;9.55;4.15;;;;;;;26.84;64.72;101078.59;5006811;28;20068;-66
2023/08/24 09:11:18;;;;;;;11.10;4.07;;;;;;;26.88;64.38;101077.84;5023294;28;20040;-65
2023/08/24 09:13:45;;;;;;;8.35;4.53;;;;;;;26.89;62.63;101065.34;5025063;28;20108;-65
2023/08/24 09:16:15;;;;;;;10.90;4.68;;;;;;;26.79;63.17;101058.91;5023241;28;20041;-66
2023/08/24 09:18:45;;;;;;;9.95;3.63;;;;;;;27.07;63.70;101058.75;5005403;28;20037;-66
2023/08/24 09:21:15;;;;;;;7.80;3.88;;;;;;;27.00;63.83;101048.38;5002221;28;20395;-66
2023/08/24 09:23:48;;;;;;;9.77;3.67;;;;;;;27.02;64.56;101040.91;5022773;28;20399;-66
2023/08/24 09:26:13;;;;;;;;;;;;;;;27.10;65.69;101028.97;5000971;28;20096;-66
2023/08/24 09:28:42;;;;;;;6.85;3.90;;;;;;;27.20;63.90;101015.72;4992192;28;20379;-65
2023/08/24 09:31:08;;;;;;;6.13;2.83;;;;;;;27.38;62.00;101012.56;5017736;28;20037;-65
2023/08/24 09:33:35;;;;;;;7.85;3.53;;;;;;;27.47;61.91;101009.41;5024084;28;20403;-66
2023/08/24 09:36:05;;;;;;;7.65;3.47;;;;;;;27.38;61.66;101007.25;5019124;28;20430;-66
2023/08/24 09:38:31;;;;;;;6.60;3.35;;;;;;;27.46;60.47;101007.78;5024487;28;20037;-65
2023/08/24 09:40:56;;;;;;;7.75;3.30;;;;;;;27.33;60.38;101017.91;5004386;28;20034;-65
2023/08/24 09:43:23;;;;;;;5.80;2.67;;;;;;;27.31;60.58;101016.53;4985487;28;20482;-65
2023/08/24 09:45:55;;;;;;;5.95;3.38;;;;;;;27.28;60.51;101011.78;5000979;28;20029;-66
2023/08/24 09:48:21;;;;;;;;;;;;;;;27.26;60.39;101027.19;4999380;28;20126;-65
2023/08/24 09:50:49;;;;;;;8.88;3.97;;;;;;;27.32;59.98;101039.44;5019475;28;20345;-65
2023/08/24 09:53:22;;;;;;;9.18;4.53;;;;;;;27.34;60.35;101040.00;5008702;28;20506;-65
2023/08/24 09:56:02;;;;;;;14.20;3.40;;;;;;;27.34;60.48;101043.44;5016861;28;20025;-65
2023/08/24 09:58:28;;;;;;;5.82;3.03;;;;;;;27.53;59.91;101057.06;5025025;28;20029;-65
2023/08/24 10:00:55;;;;;;;5.68;3.00;;;;;;;27.25;60.20;101044.19;5005872;28;20046;-65
2023/08/24 10:03:25;;;;;;;5.05;2.90;;;;;;;27.30;59.52;101049.56;5022896;28;20056;-65
2023/08/24 10:05:58;;;;;;;9.43;3.38;;;;;;;27.47;59.48;101044.03;5017934;28;20049;-66
2023/08/24 10:08:35;;;;;;;7.25;3.28;;;;;;;27.63;58.66;101044.81;4991688;28;20034;-65
2023/08/24 10:11:01;;;;;;;9.43;3.50;;;;;;;27.68;58.55;101058.94;5015818;28;20391;-65
2023/08/24 10:13:43;;;;;;;6.55;3.30;;;;;;;27.65;57.96;101054.16;5021979;28;20052;-65
2023/08/24 10:16:12;;;;;;;8.02;3.15;;;;;;;27.77;59.26;101068.03;5024485;28;20425;-66
2023/08/24 10:18:40;;;;;;;8.88;4.10;;;;;;;27.72;58.03;101061.88;5002300;28;20116;-65
2023/08/24 10:21:07;;;;;;;6.30;3.47;;;;;;;27.58;58.06;101072.25;5006423;28;20196;-65
2023/08/24 10:23:34;;;;;;;6.47;3.22;;;;;;;27.47;58.68;101066.09;5023019;28;20491;-65
2023/08/24 10:26:03;;;;;;;10.95;4.00;;;;;;;27.69;58.07;101068.56;5020302;28;20107;-65
2023/08/24 10:28:29;;;;;;;7.30;3.35;;;;;;;27.76;58.69;101079.75;5004871;28;20033;-65
2023/08/24 10:30:57;;;;;;;7.95;3.40;;;;;;;27.74;57.94;101081.84;5002600;28;20056;-65
2023/08/24 10:33:24;;;;;;;7.95;3.75;;;;;;;27.65;59.02;101079.97;5020481;28;20034;-65
2023/08/24 10:35:50;;;;;;;7.82;3.40;;;;;;;27.61;58.96;101071.72;5003996;28;20040;-65
2023/08/24 10:38:26;;;;;;;6.90;3.70;;;;;;;27.66;60.30;101078.94;5009139;28;20045;-65
2023/08/24 10:40:53;;;;;;;8.68;3.08;;;;;;;27.74;60.23;101084.53;5021721;28;20037;-66
2023/08/24 10:43:19;;;;;;;7.88;3.08;;;;;;;27.85;60.96;101081.88;5003500;28;20530;-65
2023/08/24 10:45:57;;;;;;;8.82;3.58;;;;;;;27.74;57.40;101068.53;5019995;28;20041;-66
2023/08/24 10:48:27;;;;;;;10.52;3.22;;;;;;;27.86;58.33;101062.16;5004816;28;20025;-65
2023/08/24 10:51:23;;;;;;;14.05;3.40;;;;;;;27.78;57.53;101042.19;5029401;28;20037;-65
2023/08/24 10:53:59;;;;;;;9.93;2.92;;;;;;;27.78;58.63;101050.16;5025174;28;20053;-65
2023/08/24 10:56:38;;;;;;;10.90;3.60;;;;;;;27.90;58.49;101052.63;5007298;28;20033;-65
2023/08/24 10:59:11;;;;;;;5.70;2.80;;;;;;;27.97;58.71;101050.47;5025216;28;20048;-65
2023/08/24 11:01:53;;;;;;;5.70;3.40;;;;;;;28.02;56.76;101049.69;4998361;28;20137;-65
2023/08/24 11:04:19;;;;;;;7.50;3.00;;;;;;;27.92;57.06;101045.94;5005235;28;22190;-65
2023/08/24 11:06:57;;;;;;;8.25;2.70;;;;;;;27.73;57.91;101045.66;5025281;28;20120;-65
2023/08/24 11:09:23;;;;;;;9.27;3.08;;;;;;;27.66;57.72;101061.06;5026734;28;20040;-65
2023/08/24 11:12:03;;;;;;;8.45;3.15;;;;;;;27.53;58.10;101065.03;5024106;28;20034;-65
2023/08/24 11:14:33;;;;;;;10.85;3.33;;;;;;;27.56;58.44;101063.75;5018322;28;20506;-65
2023/08/24 11:17:18;;;;;;;10.77;3.25;;;;;;;27.68;57.83;101077.59;5004145;28;20029;-65